Terminal Aerodrome Forecast
Issued by NWS

Home | Current Version | Previous Version | Graphics & Text | Print | Product List | Glossary On
Versions: 1 2 3 4 5 6 7 8 9 10 11 12 13 14 15 16 17 18 19 20 21 22 23 24 25
000
FTUS41 KCLE 271506 AAA
TAFFDY
TAF AMD
KFDY 271506Z 2715/2812 24012KT P6SM BKN020
      TEMPO 2715/2717 BKN018
     FM271700 24012KT P6SM BKN050
     FM272300 VRB03KT P6SM OVC100
     FM280300 08006KT 5SM -RA BR OVC015
     FM280500 04005KT 3SM -RA BR OVC007=

USA.gov is the U.S. government's official web portal to all federal, state and local government web resources and services.